テルアビブ / ベン・グリオン の空港の天気 - METARとTAF

ベン・グリオン国際空港(テルアビブ) ( LLBG / TLV ) - イスラエル ロード / テルアビブ
飛行場実況気象(Metar)
観測時間10/20 19:50 IDT (10/20 16:50 UTC)
風向・風速不定 2m/s
視程10km以上
天気現象
少しの雲 雲底高度 910m
気温25℃
湿度65%
気圧1017hPa
METARLLBG 201650Z VRB03KT 9999 FEW030 25/18 Q1017 NOSIG
過去の天気等 Google飛行場航空写真 Wunderground天気予報

過去48時間のMETAR

飛行場予報(TAF)
発表時間: 10/20 14:09 IDT (10/20 11:09 UTC)
予報対象時間: 20日15時 IDT ~ 21日15時 IDT
風向・風速西北西 6m/s
視程10km以上
少しの雲 雲底高度 910m
20日18時 IDT ~ 20日20時 IDT に徐々に
風向・風速不定 2m/s
全天の4割程度の雲 雲底高度 760m
21日11時 IDT ~ 21日13時 IDT に徐々に
風向・風速西北西 6m/s
少しの雲 雲底高度 910m
TAF LLBG 201109Z 2012/2112 30012KT 9999 FEW030
BECMG 2015/2017 VRB04KT SCT025
BECMG 2108/2110 29012KT FEW030 TX28/2012Z TN21/2104Z